createdAt,value
2019-06-20T00:00:57.479Z,23.60
2019-06-20T00:03:27.097Z,23.60
2019-06-20T00:05:56.732Z,23.60
2019-06-20T00:08:26.365Z,23.60
2019-06-20T00:10:56.000Z,23.60
2019-06-20T00:13:26.608Z,23.60
2019-06-20T00:15:57.538Z,23.60
2019-06-20T00:18:27.131Z,23.50
2019-06-20T00:20:56.935Z,23.60
2019-06-20T00:23:26.542Z,23.60
2019-06-20T00:25:56.202Z,23.50
2019-06-20T00:28:25.813Z,23.50
2019-06-20T00:30:55.415Z,23.50
2019-06-20T00:33:25.057Z,23.50
2019-06-20T00:35:55.717Z,23.50
2019-06-20T00:38:26.359Z,23.50
2019-06-20T00:40:55.941Z,23.50
2019-06-20T00:43:28.440Z,23.50
2019-06-20T00:45:58.648Z,23.50
2019-06-20T00:48:28.253Z,23.50
2019-06-20T00:50:59.274Z,23.50
2019-06-20T00:53:28.949Z,23.50
2019-06-20T00:55:58.816Z,23.50
2019-06-20T00:58:28.450Z,23.50
2019-06-20T01:00:58.142Z,23.50
2019-06-20T01:03:27.756Z,23.50
2019-06-20T01:05:58.027Z,23.50
2019-06-20T01:08:27.623Z,23.40
2019-06-20T01:10:57.241Z,23.40
2019-06-20T01:13:33.599Z,23.50
2019-06-20T01:15:59.215Z,23.40
2019-06-20T01:18:29.443Z,23.40
2019-06-20T01:21:00.050Z,23.40
2019-06-20T01:23:29.684Z,23.40
2019-06-20T01:26:00.307Z,23.40
2019-06-20T01:28:29.922Z,23.40
2019-06-20T01:30:59.531Z,23.40
2019-06-20T01:33:29.133Z,23.40
2019-06-20T01:35:58.690Z,23.40
2019-06-20T01:38:40.907Z,23.40
2019-06-20T01:41:10.530Z,23.40
2019-06-20T01:43:50.229Z,23.40
2019-06-20T01:46:11.458Z,23.40
2019-06-20T01:48:41.053Z,23.40
2019-06-20T01:51:10.749Z,23.30
2019-06-20T01:53:41.402Z,23.30
2019-06-20T01:56:11.005Z,23.30
2019-06-20T01:58:40.609Z,23.30
2019-06-20T02:01:10.307Z,23.30
2019-06-20T02:03:40.502Z,23.30
2019-06-20T02:06:10.065Z,23.30
2019-06-20T02:08:39.687Z,23.30
2019-06-20T02:11:09.323Z,23.30
2019-06-20T02:13:38.963Z,23.30
2019-06-20T02:16:09.323Z,23.30
2019-06-20T02:18:38.927Z,23.30
2019-06-20T02:21:08.564Z,23.30
2019-06-20T02:23:41.999Z,23.30
2019-06-20T02:26:11.689Z,23.30
2019-06-20T02:28:41.304Z,23.30
2019-06-20T02:31:10.935Z,23.20
2019-06-20T02:33:40.926Z,23.20
2019-06-20T02:36:10.531Z,23.20
2019-06-20T02:38:41.292Z,23.20
2019-06-20T02:41:10.963Z,23.20
2019-06-20T02:43:40.605Z,23.20
2019-06-20T02:46:11.438Z,23.20
2019-06-20T02:48:41.239Z,23.20
2019-06-20T02:51:14.319Z,23.20
2019-06-20T02:53:43.958Z,23.20
2019-06-20T02:56:14.807Z,23.20
2019-06-20T02:58:45.916Z,23.20
2019-06-20T03:01:16.564Z,23.10
2019-06-20T03:03:46.208Z,23.10
2019-06-20T03:06:15.770Z,23.10
2019-06-20T03:08:47.374Z,23.10
2019-06-20T03:11:16.969Z,23.10
2019-06-20T03:13:49.064Z,23.20
2019-06-20T03:16:18.653Z,23.10
2019-06-20T03:18:48.264Z,23.10
2019-06-20T03:21:17.853Z,23.10
2019-06-20T03:23:47.900Z,23.10
2019-06-20T03:26:20.361Z,23.10
2019-06-20T03:28:50.996Z,23.10
2019-06-20T03:31:20.626Z,23.10
2019-06-20T03:33:50.299Z,23.10
2019-06-20T03:36:19.954Z,23.10
2019-06-20T03:38:50.322Z,23.10
2019-06-20T03:41:19.952Z,23.10
2019-06-20T03:43:49.591Z,23.10
2019-06-20T03:46:20.906Z,23.10
2019-06-20T03:48:53.576Z,23.10
2019-06-20T03:51:23.902Z,23.10
2019-06-20T03:53:53.968Z,23.10
2019-06-20T03:56:23.590Z,23.10
2019-06-20T03:58:53.225Z,23.10
2019-06-20T04:01:23.251Z,23.10
2019-06-20T04:03:53.640Z,23.00
2019-06-20T04:06:23.277Z,23.00
2019-06-20T04:08:52.911Z,23.00
2019-06-20T04:11:23.168Z,23.00
2019-06-20T04:13:52.858Z,23.00
2019-06-20T04:16:23.573Z,23.00
2019-06-20T04:18:53.185Z,23.00
2019-06-20T04:21:25.934Z,23.00
2019-06-20T04:23:55.558Z,23.00
2019-06-20T04:26:25.128Z,23.00
2019-06-20T04:28:54.764Z,23.00
2019-06-20T04:31:24.387Z,23.00
2019-06-20T04:33:54.113Z,23.00
2019-06-20T04:36:25.668Z,23.00
2019-06-20T04:38:56.037Z,23.00
2019-06-20T04:41:26.630Z,23.00
2019-06-20T04:43:56.279Z,23.00
2019-06-20T04:46:33.256Z,23.00
2019-06-20T04:49:03.602Z,23.00
2019-06-20T04:51:34.223Z,23.00
2019-06-20T04:54:05.500Z,23.00
2019-06-20T04:56:36.147Z,22.90
2019-06-20T04:59:05.727Z,23.00
2019-06-20T05:01:35.327Z,22.90
2019-06-20T05:04:05.010Z,22.90
2019-06-20T05:06:35.601Z,22.90
2019-06-20T05:09:06.997Z,22.90
2019-06-20T05:11:36.598Z,22.90
2019-06-20T05:14:08.883Z,22.90
2019-06-20T05:16:39.534Z,22.90
2019-06-20T05:19:09.832Z,22.90
2019-06-20T05:21:39.477Z,22.90
2019-06-20T05:24:09.086Z,22.90
2019-06-20T05:26:40.084Z,22.90
2019-06-20T05:29:10.428Z,22.90
2019-06-20T05:31:41.111Z,22.90
2019-06-20T05:34:10.718Z,22.90
2019-06-20T05:36:42.533Z,22.90
2019-06-20T05:39:13.114Z,22.90
2019-06-20T05:41:42.709Z,22.90
2019-06-20T05:44:13.494Z,22.90
2019-06-20T05:46:43.075Z,22.90
2019-06-20T05:49:12.663Z,22.90
2019-06-20T05:51:43.302Z,22.90
2019-06-20T05:54:13.958Z,22.90
2019-06-20T05:56:43.698Z,22.80
2019-06-20T05:59:13.906Z,22.90
2019-06-20T06:01:44.043Z,22.90
2019-06-20T06:04:13.614Z,22.90
2019-06-20T06:06:43.207Z,22.90
2019-06-20T06:09:12.804Z,22.90
2019-06-20T06:11:42.446Z,22.90
2019-06-20T06:14:12.045Z,22.90
2019-06-20T06:16:44.099Z,22.80
2019-06-20T06:19:14.046Z,22.80
2019-06-20T06:21:44.666Z,22.90
2019-06-20T06:24:14.306Z,22.90
2019-06-20T06:26:43.909Z,22.80
2019-06-20T06:29:13.506Z,22.80
2019-06-20T06:31:43.460Z,22.80
2019-06-20T06:34:13.333Z,22.90
2019-06-20T06:36:44.257Z,22.90
2019-06-20T06:39:13.888Z,22.90
2019-06-20T06:41:43.537Z,22.80
2019-06-20T06:44:15.779Z,22.90
2019-06-20T06:46:53.184Z,22.90
2019-06-20T06:49:16.943Z,22.90
2019-06-20T06:51:47.526Z,22.90
2019-06-20T06:54:17.155Z,22.80
2019-06-20T06:56:46.766Z,22.80
2019-06-20T06:59:16.360Z,22.80
2019-06-20T07:01:45.980Z,22.80
2019-06-20T07:04:16.512Z,22.80
2019-06-20T07:06:46.123Z,22.80
2019-06-20T07:09:15.724Z,22.80
2019-06-20T07:11:46.052Z,22.80
2019-06-20T07:14:15.638Z,22.80
2019-06-20T07:16:59.454Z,22.80
2019-06-20T07:19:17.297Z,22.80
2019-06-20T07:21:46.922Z,22.80
2019-06-20T07:24:16.620Z,22.80
2019-06-20T07:26:46.256Z,22.80
2019-06-20T07:29:15.873Z,22.80
2019-06-20T07:31:46.478Z,22.70
2019-06-20T07:34:17.443Z,22.80
2019-06-20T07:36:47.040Z,22.80
2019-06-20T07:39:17.524Z,22.80
2019-06-20T07:41:48.550Z,22.80
2019-06-20T07:44:18.192Z,22.70
2019-06-20T07:46:47.810Z,22.70
2019-06-20T07:49:17.462Z,22.70
2019-06-20T07:51:47.830Z,22.70
2019-06-20T07:54:18.667Z,22.70
2019-06-20T07:56:49.736Z,22.70
2019-06-20T07:59:20.420Z,22.70
2019-06-20T08:01:50.759Z,22.70
2019-06-20T08:04:22.068Z,22.70
2019-06-20T08:06:51.722Z,22.70
2019-06-20T08:09:22.210Z,22.70
2019-06-20T08:11:52.430Z,22.70
2019-06-20T08:14:23.090Z,22.70
2019-06-20T08:16:53.884Z,22.70
2019-06-20T08:19:24.505Z,22.70
2019-06-20T08:21:54.191Z,22.70
2019-06-20T08:24:23.815Z,22.70
2019-06-20T08:26:53.409Z,22.70
2019-06-20T08:29:23.008Z,22.70
2019-06-20T08:31:53.408Z,22.70
2019-06-20T08:34:22.966Z,22.70
2019-06-20T08:36:52.639Z,22.80
2019-06-20T08:39:22.321Z,22.80
2019-06-20T08:41:51.998Z,22.80
2019-06-20T08:44:21.623Z,22.80
2019-06-20T08:46:51.351Z,22.80
2019-06-20T08:49:20.944Z,22.80
2019-06-20T08:51:50.535Z,22.80
2019-06-20T08:54:20.128Z,22.80
2019-06-20T08:56:49.717Z,22.90
2019-06-20T08:59:24.327Z,22.80
2019-06-20T09:01:50.593Z,22.90
2019-06-20T09:04:22.455Z,22.90
2019-06-20T09:06:51.589Z,22.90
2019-06-20T09:09:21.239Z,22.90
2019-06-20T09:11:50.839Z,22.80
2019-06-20T09:14:20.490Z,22.90
2019-06-20T09:16:50.101Z,22.90
2019-06-20T09:19:19.724Z,22.90
2019-06-20T09:21:49.359Z,22.90
2019-06-20T09:24:18.937Z,22.90
2019-06-20T09:26:48.589Z,23.00
2019-06-20T09:29:18.205Z,22.90
2019-06-20T09:31:47.785Z,23.00
2019-06-20T09:34:17.411Z,23.00
2019-06-20T09:36:47.067Z,23.00
2019-06-20T09:39:16.688Z,23.00
2019-06-20T09:41:46.301Z,23.10
2019-06-20T09:44:15.921Z,23.10
2019-06-20T09:46:45.528Z,23.10
2019-06-20T09:49:17.621Z,23.10
2019-06-20T09:51:48.598Z,23.10
2019-06-20T09:54:18.539Z,23.10
2019-06-20T09:56:50.273Z,23.10
2019-06-20T09:59:27.877Z,23.10
2019-06-20T10:01:56.367Z,23.10
2019-06-20T10:04:30.212Z,23.20
2019-06-20T10:06:59.803Z,23.20
2019-06-20T10:09:30.138Z,23.20
2019-06-20T10:11:59.801Z,23.30
2019-06-20T10:14:30.168Z,23.20
2019-06-20T10:17:02.935Z,23.30
2019-06-20T10:19:32.549Z,23.30
2019-06-20T10:22:02.160Z,23.30
2019-06-20T10:24:32.831Z,23.30
2019-06-20T10:27:03.459Z,23.30
2019-06-20T10:29:33.971Z,23.30
2019-06-20T10:32:03.695Z,23.40
2019-06-20T10:34:33.951Z,23.40
2019-06-20T10:37:06.645Z,23.40
2019-06-20T10:39:36.237Z,23.40
2019-06-20T10:42:05.873Z,23.40
2019-06-20T10:44:36.251Z,23.40
2019-06-20T10:47:05.863Z,23.40
2019-06-20T10:49:35.444Z,23.40
2019-06-20T10:52:05.204Z,23.40
2019-06-20T10:54:35.815Z,23.40
2019-06-20T10:57:05.441Z,23.40
2019-06-20T10:59:35.011Z,23.40
2019-06-20T11:02:07.278Z,23.40
2019-06-20T11:04:35.901Z,23.40
2019-06-20T11:07:05.485Z,23.40
2019-06-20T11:09:35.075Z,23.50
2019-06-20T11:12:04.734Z,23.50
2019-06-20T11:14:34.362Z,23.50
2019-06-20T11:17:05.120Z,23.40
2019-06-20T11:19:38.117Z,23.40
2019-06-20T11:22:07.043Z,23.40
2019-06-20T11:24:38.880Z,23.40
2019-06-20T11:27:08.975Z,23.40
2019-06-20T11:29:38.599Z,23.90
2019-06-20T11:32:08.325Z,23.50
2019-06-20T11:34:39.364Z,23.50
2019-06-20T11:37:09.268Z,23.50
2019-06-20T11:39:38.965Z,23.50
2019-06-20T11:42:08.571Z,23.50
2019-06-20T11:47:30.620Z,23.60
2019-06-20T11:50:00.316Z,23.60
2019-06-20T11:52:35.263Z,23.60
2019-06-20T11:55:01.239Z,23.60
2019-06-20T11:57:32.464Z,23.60
2019-06-20T12:00:02.100Z,23.70
2019-06-20T12:02:33.377Z,23.60
2019-06-20T12:05:03.052Z,23.70
2019-06-20T12:07:35.365Z,23.60
2019-06-20T12:10:06.742Z,23.60
2019-06-20T12:12:39.079Z,23.70
2019-06-20T12:15:08.663Z,23.70
2019-06-20T12:17:40.870Z,23.70
2019-06-20T12:20:11.845Z,23.70
2019-06-20T12:22:43.251Z,23.70
2019-06-20T12:25:13.767Z,23.70
2019-06-20T12:27:47.516Z,23.70
2019-06-20T12:30:17.337Z,23.70
2019-06-20T12:32:46.990Z,23.70
2019-06-20T12:35:16.647Z,23.70
2019-06-20T12:37:47.660Z,23.70
2019-06-20T12:40:17.550Z,23.80
2019-06-20T12:42:47.159Z,23.80
2019-06-20T12:45:17.779Z,23.80
2019-06-20T12:47:47.514Z,23.80
2019-06-20T12:50:18.527Z,23.80
2019-06-20T12:52:49.553Z,23.80
2019-06-20T12:55:20.670Z,23.80
2019-06-20T12:57:50.365Z,23.80
2019-06-20T13:00:22.939Z,23.90
2019-06-20T13:02:53.879Z,23.90
2019-06-20T13:05:23.523Z,23.90
2019-06-20T13:07:53.132Z,23.90
2019-06-20T13:10:23.127Z,23.90
2019-06-20T13:12:53.723Z,23.90
2019-06-20T13:15:23.330Z,23.90
2019-06-20T13:17:58.777Z,23.90
2019-06-20T13:20:28.421Z,23.90
2019-06-20T13:22:58.059Z,24.00
2019-06-20T13:25:28.790Z,24.00
2019-06-20T13:27:59.437Z,24.00
2019-06-20T13:30:29.062Z,23.90
2019-06-20T13:32:58.654Z,24.00
2019-06-20T13:35:29.394Z,24.00
2019-06-20T13:37:58.963Z,24.00
2019-06-20T13:40:28.559Z,24.00
2019-06-20T13:42:59.130Z,24.00
2019-06-20T13:45:29.748Z,24.00
2019-06-20T13:47:59.358Z,24.00
2019-06-20T13:50:28.947Z,24.00
2019-06-20T13:52:58.567Z,24.00
2019-06-20T13:55:29.676Z,24.00
2019-06-20T13:57:59.300Z,24.00
2019-06-20T14:00:28.982Z,24.10
2019-06-20T14:02:59.761Z,24.10
2019-06-20T14:05:29.411Z,24.10
2019-06-20T14:07:59.053Z,24.10
2019-06-20T14:10:28.669Z,24.10
2019-06-20T14:12:58.989Z,24.10
2019-06-20T14:15:28.594Z,24.20
2019-06-20T14:17:58.916Z,24.20
2019-06-20T14:20:28.568Z,24.20
2019-06-20T14:22:58.234Z,24.10
2019-06-20T14:25:28.851Z,24.20
2019-06-20T14:28:00.891Z,24.20
2019-06-20T14:30:30.499Z,24.20
2019-06-20T14:33:00.109Z,24.10
2019-06-20T14:35:29.860Z,24.20
2019-06-20T14:38:00.498Z,24.10
2019-06-20T14:40:33.096Z,24.10
2019-06-20T14:43:02.917Z,24.20
2019-06-20T14:45:33.097Z,24.20
2019-06-20T14:48:04.104Z,24.20
2019-06-20T14:50:34.908Z,24.20
2019-06-20T14:53:07.570Z,24.20
2019-06-20T14:55:37.175Z,24.20
2019-06-20T14:58:07.798Z,24.20
2019-06-20T15:00:37.346Z,24.20
2019-06-20T15:03:08.037Z,24.20
2019-06-20T15:05:38.514Z,24.20
2019-06-20T15:08:08.105Z,24.20
2019-06-20T15:10:37.713Z,24.20
2019-06-20T15:13:07.316Z,24.20
2019-06-20T15:15:36.902Z,24.20
2019-06-20T15:18:09.538Z,24.20
2019-06-20T15:20:39.118Z,24.20
2019-06-20T15:23:08.711Z,24.20
2019-06-20T15:25:38.530Z,24.20
2019-06-20T15:28:09.368Z,24.20
2019-06-20T15:30:39.443Z,24.20
2019-06-20T15:33:10.814Z,24.20
2019-06-20T15:35:41.491Z,24.20
2019-06-20T15:38:11.253Z,24.20
2019-06-20T15:40:40.865Z,24.20
2019-06-20T15:43:10.487Z,24.20
2019-06-20T15:45:40.071Z,24.10
2019-06-20T15:48:09.640Z,24.20
2019-06-20T15:50:39.249Z,24.20
2019-06-20T15:53:08.838Z,24.10
2019-06-20T15:55:38.518Z,24.10
2019-06-20T15:58:09.004Z,24.10
2019-06-20T16:00:39.607Z,24.20
2019-06-20T16:03:10.671Z,24.20
2019-06-20T16:05:40.705Z,24.20
2019-06-20T16:08:10.420Z,24.20
2019-06-20T16:10:40.079Z,24.20
2019-06-20T16:13:09.702Z,24.20
2019-06-20T16:15:39.327Z,24.30
2019-06-20T16:18:08.922Z,24.30
2019-06-20T16:20:39.168Z,24.20
2019-06-20T16:23:08.762Z,24.30
2019-06-20T16:25:38.383Z,24.30
2019-06-20T16:28:09.042Z,24.30
2019-06-20T16:30:38.767Z,24.20
2019-06-20T16:33:08.356Z,24.30
2019-06-20T16:35:37.990Z,24.20
2019-06-20T16:38:07.685Z,24.30
2019-06-20T16:40:46.300Z,24.30
2019-06-20T16:43:15.923Z,24.30
2019-06-20T16:45:45.619Z,24.30
2019-06-20T16:48:15.210Z,24.30
2019-06-20T16:50:44.835Z,24.30
2019-06-20T16:53:14.967Z,24.30
2019-06-20T16:55:45.761Z,24.30
2019-06-20T16:58:15.304Z,24.30
2019-06-20T17:00:45.064Z,24.40
2019-06-20T17:03:14.743Z,24.30
2019-06-20T17:05:44.354Z,24.30
2019-06-20T17:08:14.041Z,24.40
2019-06-20T17:10:43.745Z,24.40
2019-06-20T17:13:13.429Z,24.40
2019-06-20T17:15:44.643Z,24.40
2019-06-20T17:18:14.254Z,24.40
2019-06-20T17:20:43.861Z,24.40
2019-06-20T17:23:14.874Z,24.40
2019-06-20T17:25:44.571Z,24.40
2019-06-20T17:28:14.123Z,24.40
2019-06-20T17:30:43.691Z,24.40
2019-06-20T17:33:13.770Z,24.40
2019-06-20T17:35:43.506Z,24.50
2019-06-20T17:38:13.137Z,24.80
2019-06-20T17:40:42.716Z,25.20
2019-06-20T17:43:12.332Z,25.60
2019-06-20T17:45:41.983Z,26.10
2019-06-20T17:48:11.585Z,26.50
2019-06-20T17:50:41.221Z,26.90
2019-06-20T17:53:10.848Z,27.20
2019-06-20T17:55:42.841Z,27.40
2019-06-20T17:58:12.425Z,27.70
2019-06-20T18:00:43.656Z,27.70
2019-06-20T18:03:13.378Z,27.70
2019-06-20T18:05:43.132Z,27.60
2019-06-20T18:08:15.399Z,27.40
2019-06-20T18:10:44.105Z,27.30
2019-06-20T18:13:13.722Z,27.10
2019-06-20T18:15:44.044Z,26.90
2019-06-20T18:18:13.684Z,26.70
2019-06-20T18:20:43.421Z,26.60
2019-06-20T18:23:13.094Z,26.50
2019-06-20T18:25:42.760Z,26.40
2019-06-20T18:28:15.255Z,26.30
2019-06-20T18:30:46.896Z,26.10
2019-06-20T18:33:17.207Z,26.00
2019-06-20T18:35:46.882Z,25.80
2019-06-20T18:38:16.490Z,25.60
2019-06-20T18:40:47.255Z,25.50
2019-06-20T18:43:18.613Z,25.40
2019-06-20T18:45:48.936Z,25.30
2019-06-20T18:48:18.575Z,25.20
2019-06-20T18:50:48.693Z,25.20
2019-06-20T18:53:19.968Z,25.10
2019-06-20T18:55:50.298Z,25.00
2019-06-20T18:58:19.916Z,24.90
2019-06-20T19:00:49.616Z,24.90
2019-06-20T19:03:21.430Z,24.90
2019-06-20T19:05:51.650Z,24.80
2019-06-20T19:08:24.518Z,24.80
2019-06-20T19:10:54.141Z,24.70
2019-06-20T19:13:23.911Z,24.70
2019-06-20T19:15:53.538Z,24.60
2019-06-20T19:18:23.376Z,24.60
2019-06-20T19:20:53.553Z,24.60
2019-06-20T19:23:24.799Z,24.50
2019-06-20T19:25:54.456Z,24.50
2019-06-20T19:28:27.021Z,24.50
2019-06-20T19:30:56.735Z,24.40
2019-06-20T19:33:28.463Z,24.40
2019-06-20T19:35:58.091Z,24.40
2019-06-20T19:38:27.652Z,24.40
2019-06-20T19:40:57.292Z,24.40
2019-06-20T19:43:27.626Z,24.40
2019-06-20T19:45:58.111Z,24.30
2019-06-20T19:48:29.632Z,24.30
2019-06-20T19:51:00.562Z,24.30
2019-06-20T19:53:31.660Z,24.30
2019-06-20T19:56:01.610Z,24.30
2019-06-20T19:58:31.363Z,24.30
2019-06-20T20:01:01.111Z,24.30
2019-06-20T20:03:30.782Z,24.30
2019-06-20T20:06:00.486Z,24.30
2019-06-20T20:08:31.788Z,24.20
2019-06-20T20:11:01.433Z,24.20
2019-06-20T20:13:31.141Z,24.20
2019-06-20T20:16:00.805Z,24.20
2019-06-20T20:18:31.501Z,24.20
2019-06-20T20:21:01.121Z,24.20
2019-06-20T20:23:30.740Z,24.20
2019-06-20T20:26:00.365Z,24.10
2019-06-20T20:28:30.032Z,24.10
2019-06-20T20:30:59.698Z,24.10
2019-06-20T20:33:29.315Z,24.10
2019-06-20T20:36:02.131Z,24.10
2019-06-20T20:38:31.902Z,24.10
2019-06-20T20:41:01.492Z,24.10
2019-06-20T20:43:31.113Z,24.00
2019-06-20T20:46:01.957Z,24.00
2019-06-20T20:48:31.725Z,24.00
2019-06-20T20:51:03.990Z,24.00
2019-06-20T20:53:33.772Z,24.00
2019-06-20T20:56:03.373Z,24.00
2019-06-20T20:58:34.810Z,24.00
2019-06-20T21:01:11.803Z,23.90
2019-06-20T21:03:41.433Z,23.90
2019-06-20T21:06:11.021Z,23.90
2019-06-20T21:08:40.649Z,23.90
2019-06-20T21:11:10.259Z,23.90
2019-06-20T21:13:39.895Z,23.90
2019-06-20T21:16:09.471Z,23.90
2019-06-20T21:18:39.020Z,23.90
2019-06-20T21:21:08.728Z,23.90
2019-06-20T21:23:38.400Z,23.90
2019-06-20T21:26:08.642Z,23.90
2019-06-20T21:28:39.829Z,23.90
2019-06-20T21:31:09.542Z,23.80
2019-06-20T21:33:39.226Z,23.80
2019-06-20T21:36:09.379Z,23.80
2019-06-20T21:38:39.046Z,23.80
2019-06-20T21:41:09.442Z,23.80
2019-06-20T21:43:39.035Z,23.70
2019-06-20T21:46:08.757Z,23.70
2019-06-20T21:48:38.345Z,23.70
2019-06-20T21:51:18.735Z,23.70
2019-06-20T21:53:51.386Z,23.70
2019-06-20T21:56:21.014Z,23.70
2019-06-20T21:58:50.626Z,23.70
2019-06-20T22:01:21.571Z,23.70
2019-06-20T22:03:51.552Z,23.70
2019-06-20T22:06:24.105Z,23.60
2019-06-20T22:08:53.520Z,23.70
2019-06-20T22:11:23.151Z,23.60
2019-06-20T22:13:52.776Z,23.60
2019-06-20T22:16:23.009Z,23.60
2019-06-20T22:18:52.568Z,23.60
2019-06-20T22:21:22.177Z,23.60
2019-06-20T22:23:53.410Z,23.60
2019-06-20T22:26:23.120Z,23.60
2019-06-20T22:28:52.754Z,23.60
2019-06-20T22:31:22.388Z,23.60
2019-06-20T22:33:51.999Z,23.60
2019-06-20T22:36:21.684Z,23.60
2019-06-20T22:38:51.393Z,23.60
2019-06-20T22:41:21.034Z,23.50
2019-06-20T22:43:50.595Z,23.50
2019-06-20T22:46:20.301Z,23.50
2019-06-20T22:48:49.954Z,23.50
2019-06-20T22:51:19.603Z,23.50
2019-06-20T22:53:49.241Z,23.50
2019-06-20T22:56:18.845Z,23.50
2019-06-20T22:58:48.489Z,23.50
2019-06-20T23:01:18.115Z,23.50
2019-06-20T23:03:47.749Z,23.50
2019-06-20T23:06:17.434Z,23.50
2019-06-20T23:08:47.047Z,23.50
2019-06-20T23:11:18.299Z,23.40
2019-06-20T23:13:47.935Z,23.40
2019-06-20T23:16:18.303Z,23.40
2019-06-20T23:18:47.999Z,23.40
2019-06-20T23:21:17.698Z,23.40
2019-06-20T23:23:47.345Z,23.40
2019-06-20T23:26:17.079Z,23.40
2019-06-20T23:28:49.555Z,23.40
2019-06-20T23:31:19.156Z,23.40
2019-06-20T23:33:48.795Z,23.40
2019-06-20T23:36:18.356Z,23.40
2019-06-20T23:38:48.007Z,23.40
2019-06-20T23:41:17.644Z,23.40
2019-06-20T23:43:47.282Z,23.40
2019-06-20T23:46:16.906Z,23.30
2019-06-20T23:48:46.565Z,23.30
2019-06-20T23:51:25.429Z,23.30
2019-06-20T23:53:47.530Z,23.30
2019-06-20T23:56:17.134Z,23.30
2019-06-20T23:58:46.755Z,23.30
